Terminal Aerodrome Forecast
Issued by NWS

Home | Current Version | Previous Version | Text Only | Print | Product List | Glossary On
Versions: 1 2 3 4 5 6 7 8 9 10 11 12 13 14 15 16 17 18 19 20 21 22 23
000
FTUS41 KBTV 270532
TAFSLK
TAF
KSLK 270532Z 2706/2806 21004KT P6SM OVC015 WS020/19035KT
     FM270900 17005KT 5SM -RA BR OVC015 WS020/20035KT
     FM271300 21005KT 5SM -RA BR OVC015
     FM271800 22006KT P6SM VCSH OVC020
     FM280000 00000KT P6SM VCSH OVC010=

USA.gov is the U.S. government's official web portal to all federal, state and local government web resources and services.